sensor_id;sensor_type;location;lat;lon;timestamp;pressure;altitude;pressure_sealevel;temperature;humidity
53522;BME280;39398;48.382;9.802;2023-09-18T00:03:36;93474.22;;;19.21;60.94
53522;BME280;39398;48.382;9.802;2023-09-18T00:08:40;93475.56;;;19.24;60.99
53522;BME280;39398;48.382;9.802;2023-09-18T00:13:41;93477.66;;;19.16;61.46
53522;BME280;39398;48.382;9.802;2023-09-18T00:18:43;93472.66;;;19.25;60.81
53522;BME280;39398;48.382;9.802;2023-09-18T00:23:46;93472.09;;;19.33;60.21
53522;BME280;39398;48.382;9.802;2023-09-18T00:28:48;93461.56;;;19.33;60.69
53522;BME280;39398;48.382;9.802;2023-09-18T00:33:49;93456.81;;;19.30;60.79
53522;BME280;39398;48.382;9.802;2023-09-18T00:38:52;93448.41;;;19.23;60.93
53522;BME280;39398;48.382;9.802;2023-09-18T00:43:55;93449.72;;;19.21;61.21
53522;BME280;39398;48.382;9.802;2023-09-18T00:48:57;93432.84;;;19.11;61.55
53522;BME280;39398;48.382;9.802;2023-09-18T00:54:00;93427.09;;;18.89;63.15
53522;BME280;39398;48.382;9.802;2023-09-18T00:59:02;93422.59;;;18.85;63.04
53522;BME280;39398;48.382;9.802;2023-09-18T01:04:04;93438.16;;;18.91;61.90
53522;BME280;39398;48.382;9.802;2023-09-18T01:09:07;93441.03;;;19.05;62.76
53522;BME280;39398;48.382;9.802;2023-09-18T01:14:15;93431.28;;;19.21;62.41
53522;BME280;39398;48.382;9.802;2023-09-18T01:19:34;93433.34;;;19.34;62.26
53522;BME280;39398;48.382;9.802;2023-09-18T01:24:38;93441.22;;;19.49;61.35
53522;BME280;39398;48.382;9.802;2023-09-18T01:29:40;93425.94;;;19.46;61.90
53522;BME280;39398;48.382;9.802;2023-09-18T01:34:46;93431.25;;;19.31;62.50
53522;BME280;39398;48.382;9.802;2023-09-18T01:39:51;93424.94;;;19.27;61.85
53522;BME280;39398;48.382;9.802;2023-09-18T01:44:54;93387.06;;;18.92;64.00
53522;BME280;39398;48.382;9.802;2023-09-18T01:49:56;93339.38;;;18.89;64.52
53522;BME280;39398;48.382;9.802;2023-09-18T01:54:59;93359.66;;;18.88;63.17
53522;BME280;39398;48.382;9.802;2023-09-18T02:00:00;93400.44;;;19.11;62.93
53522;BME280;39398;48.382;9.802;2023-09-18T02:05:03;93384.91;;;19.14;63.13
53522;BME280;39398;48.382;9.802;2023-09-18T02:10:12;93370.19;;;18.93;63.52
53522;BME280;39398;48.382;9.802;2023-09-18T02:15:13;93362.56;;;18.87;63.72
53522;BME280;39398;48.382;9.802;2023-09-18T02:20:15;93348.81;;;18.03;66.58
53522;BME280;39398;48.382;9.802;2023-09-18T02:25:18;93357.81;;;18.43;64.45
53522;BME280;39398;48.382;9.802;2023-09-18T02:30:20;93342.50;;;18.09;66.50
53522;BME280;39398;48.382;9.802;2023-09-18T02:35:21;93340.84;;;17.73;68.17
53522;BME280;39398;48.382;9.802;2023-09-18T02:40:24;93338.25;;;17.98;66.82
53522;BME280;39398;48.382;9.802;2023-09-18T02:45:26;93320.38;;;17.95;67.38
53522;BME280;39398;48.382;9.802;2023-09-18T02:50:27;93342.38;;;17.64;68.45
53522;BME280;39398;48.382;9.802;2023-09-18T02:55:30;93346.50;;;17.50;69.80
53522;BME280;39398;48.382;9.802;2023-09-18T03:00:32;93339.00;;;17.73;68.13
53522;BME280;39398;48.382;9.802;2023-09-18T03:05:44;93327.72;;;17.93;67.46
53522;BME280;39398;48.382;9.802;2023-09-18T03:10:47;93337.22;;;17.99;66.92
53522;BME280;39398;48.382;9.802;2023-09-18T03:15:49;93330.88;;;17.75;67.60
53522;BME280;39398;48.382;9.802;2023-09-18T03:20:50;93310.38;;;17.92;66.46
53522;BME280;39398;48.382;9.802;2023-09-18T03:25:53;93316.19;;;18.04;66.15
53522;BME280;39398;48.382;9.802;2023-09-18T03:30:54;93309.34;;;18.19;65.22
53522;BME280;39398;48.382;9.802;2023-09-18T03:35:56;93326.59;;;17.64;66.21
53522;BME280;39398;48.382;9.802;2023-09-18T03:41:00;93310.06;;;16.32;73.09
53522;BME280;39398;48.382;9.802;2023-09-18T03:46:05;93307.91;;;16.56;73.65
53522;BME280;39398;48.382;9.802;2023-09-18T03:51:07;93325.19;;;16.20;74.11
53522;BME280;39398;48.382;9.802;2023-09-18T03:56:10;93336.41;;;16.79;70.91
53522;BME280;39398;48.382;9.802;2023-09-18T04:01:11;93345.00;;;17.12;69.33
53522;BME280;39398;48.382;9.802;2023-09-18T04:06:13;93350.91;;;17.34;67.71
53522;BME280;39398;48.382;9.802;2023-09-18T04:11:16;93365.41;;;17.47;67.09
53522;BME280;39398;48.382;9.802;2023-09-18T04:16:18;93393.94;;;17.70;66.58
53522;BME280;39398;48.382;9.802;2023-09-18T04:21:20;93422.06;;;17.22;68.63
53522;BME280;39398;48.382;9.802;2023-09-18T04:26:23;93387.69;;;17.34;66.80
53522;BME280;39398;48.382;9.802;2023-09-18T04:31:25;93366.44;;;17.45;65.30
53522;BME280;39398;48.382;9.802;2023-09-18T04:36:26;93362.25;;;17.39;65.88
53522;BME280;39398;48.382;9.802;2023-09-18T04:41:29;93365.13;;;17.43;65.05
53522;BME280;39398;48.382;9.802;2023-09-18T04:46:31;93352.53;;;17.45;64.20
53522;BME280;39398;48.382;9.802;2023-09-18T04:51:32;93325.59;;;17.80;62.54
53522;BME280;39398;48.382;9.802;2023-09-18T04:56:35;93343.50;;;17.83;62.42
53522;BME280;39398;48.382;9.802;2023-09-18T05:01:37;93341.97;;;18.12;61.84
53522;BME280;39398;48.382;9.802;2023-09-18T05:06:38;93331.72;;;18.16;62.18
53522;BME280;39398;48.382;9.802;2023-09-18T05:11:41;93333.03;;;18.24;62.27
53522;BME280;39398;48.382;9.802;2023-09-18T05:16:46;93310.41;;;18.23;62.44
53522;BME280;39398;48.382;9.802;2023-09-18T05:21:48;93296.72;;;18.10;63.28
53522;BME280;39398;48.382;9.802;2023-09-18T05:26:51;93308.28;;;18.04;63.53
53522;BME280;39398;48.382;9.802;2023-09-18T05:31:52;93333.03;;;18.13;63.30
53522;BME280;39398;48.382;9.802;2023-09-18T05:36:54;93348.28;;;18.27;62.90
53522;BME280;39398;48.382;9.802;2023-09-18T05:41:57;93372.53;;;18.39;62.40
53522;BME280;39398;48.382;9.802;2023-09-18T05:46:59;93373.03;;;18.46;61.67
53522;BME280;39398;48.382;9.802;2023-09-18T05:52:00;93374.88;;;18.45;62.06
53522;BME280;39398;48.382;9.802;2023-09-18T05:57:04;93376.75;;;18.55;61.73
53522;BME280;39398;48.382;9.802;2023-09-18T06:02:05;93358.63;;;18.69;61.37
53522;BME280;39398;48.382;9.802;2023-09-18T06:07:07;93367.28;;;18.79;61.92
53522;BME280;39398;48.382;9.802;2023-09-18T06:12:10;93361.47;;;18.98;61.16
53522;BME280;39398;48.382;9.802;2023-09-18T06:17:12;93376.19;;;19.19;60.18
53522;BME280;39398;48.382;9.802;2023-09-18T06:22:13;93376.19;;;19.19;60.38
53522;BME280;39398;48.382;9.802;2023-09-18T06:27:16;93395.66;;;19.28;60.05
53522;BME280;39398;48.382;9.802;2023-09-18T06:32:18;93386.75;;;19.14;61.61
53522;BME280;39398;48.382;9.802;2023-09-18T06:37:19;93389.13;;;19.21;60.92
53522;BME280;39398;48.382;9.802;2023-09-18T06:42:22;93380.94;;;19.22;61.30
53522;BME280;39398;48.382;9.802;2023-09-18T06:47:24;93390.97;;;18.95;63.24
53522;BME280;39398;48.382;9.802;2023-09-18T06:52:26;93398.88;;;19.00;63.95
53522;BME280;39398;48.382;9.802;2023-09-18T06:57:29;93396.22;;;19.20;63.04
53522;BME280;39398;48.382;9.802;2023-09-18T07:02:30;93392.75;;;19.40;62.85
53522;BME280;39398;48.382;9.802;2023-09-18T07:07:32;93389.88;;;19.31;62.14
53522;BME280;39398;48.382;9.802;2023-09-18T07:12:35;93387.25;;;19.26;62.24
53522;BME280;39398;48.382;9.802;2023-09-18T07:17:37;93389.38;;;19.24;62.23
53522;BME280;39398;48.382;9.802;2023-09-18T07:22:39;93387.22;;;19.36;62.10
53522;BME280;39398;48.382;9.802;2023-09-18T07:27:42;93386.69;;;19.39;61.82
53522;BME280;39398;48.382;9.802;2023-09-18T07:32:43;93403.03;;;19.36;62.20
53522;BME280;39398;48.382;9.802;2023-09-18T07:37:45;93425.72;;;19.27;62.58
53522;BME280;39398;48.382;9.802;2023-09-18T07:42:48;93436.53;;;19.41;62.05
53522;BME280;39398;48.382;9.802;2023-09-18T07:47:50;93438.91;;;19.42;62.25
53522;BME280;39398;48.382;9.802;2023-09-18T07:52:51;93445.47;;;19.45;62.51
53522;BME280;39398;48.382;9.802;2023-09-18T07:57:54;93459.19;;;19.42;63.04
53522;BME280;39398;48.382;9.802;2023-09-18T08:02:56;93466.56;;;19.40;63.47
53522;BME280;39398;48.382;9.802;2023-09-18T08:07:58;93489.50;;;19.34;63.51
53522;BME280;39398;48.382;9.802;2023-09-18T08:13:01;93485.81;;;19.15;64.49
53522;BME280;39398;48.382;9.802;2023-09-18T08:18:03;93477.94;;;19.10;64.24
53522;BME280;39398;48.382;9.802;2023-09-18T08:23:05;93477.41;;;19.18;63.91
53522;BME280;39398;48.382;9.802;2023-09-18T08:28:08;93481.06;;;19.42;63.47
53522;BME280;39398;48.382;9.802;2023-09-18T08:33:10;93490.53;;;19.48;63.34
53522;BME280;39398;48.382;9.802;2023-09-18T08:38:12;93499.50;;;19.63;62.89
53522;BME280;39398;48.382;9.802;2023-09-18T08:43:16;93508.22;;;19.63;62.74
53522;BME280;39398;48.382;9.802;2023-09-18T08:48:19;93502.69;;;19.75;62.26
53522;BME280;39398;48.382;9.802;2023-09-18T08:53:21;93506.38;;;19.69;62.20
53522;BME280;39398;48.382;9.802;2023-09-18T08:58:25;93505.78;;;19.92;61.33
53522;BME280;39398;48.382;9.802;2023-09-18T09:03:27;93508.91;;;20.04;60.73
53522;BME280;39398;48.382;9.802;2023-09-18T09:08:29;93502.25;;;20.17;60.94
53522;BME280;39398;48.382;9.802;2023-09-18T09:13:32;93497.72;;;20.28;60.60
53522;BME280;39398;48.382;9.802;2023-09-18T09:18:48;93495.59;;;20.35;58.49
53522;BME280;39398;48.382;9.802;2023-09-18T09:23:51;93501.44;;;20.27;55.56
53522;BME280;39398;48.382;9.802;2023-09-18T09:28:54;93509.91;;;20.18;54.96
53522;BME280;39398;48.382;9.802;2023-09-18T09:33:57;93507.59;;;19.97;54.68
53522;BME280;39398;48.382;9.802;2023-09-18T09:38:58;93504.22;;;19.91;53.35
53522;BME280;39398;48.382;9.802;2023-09-18T09:44:05;93508.66;;;19.96;53.18
53522;BME280;39398;48.382;9.802;2023-09-18T09:49:06;93527.44;;;19.89;54.88
53522;BME280;39398;48.382;9.802;2023-09-18T09:54:08;93555.69;;;19.73;54.35
53522;BME280;39398;48.382;9.802;2023-09-18T09:59:13;93561.75;;;19.54;56.65
53522;BME280;39398;48.382;9.802;2023-09-18T10:04:17;93580.72;;;19.25;59.98
53522;BME280;39398;48.382;9.802;2023-09-18T10:09:20;93596.44;;;18.85;60.55
53522;BME280;39398;48.382;9.802;2023-09-18T10:14:29;93595.59;;;18.59;62.52
53522;BME280;39398;48.382;9.802;2023-09-18T10:19:49;93604.69;;;18.41;65.74
53522;BME280;39398;48.382;9.802;2023-09-18T10:25:03;93597.25;;;18.28;68.73
53522;BME280;39398;48.382;9.802;2023-09-18T10:30:11;93582.97;;;18.13;69.52
53522;BME280;39398;48.382;9.802;2023-09-18T10:35:14;93582.28;;;17.86;70.25
53522;BME280;39398;48.382;9.802;2023-09-18T10:40:16;93599.06;;;17.48;72.08
53522;BME280;39398;48.382;9.802;2023-09-18T10:45:19;93600.28;;;17.35;71.52
53522;BME280;39398;48.382;9.802;2023-09-18T10:50:26;93590.94;;;17.18;72.38
53522;BME280;39398;48.382;9.802;2023-09-18T10:55:28;93614.88;;;17.21;72.98
53522;BME280;39398;48.382;9.802;2023-09-18T11:00:31;93615.84;;;17.15;73.36
53522;BME280;39398;48.382;9.802;2023-09-18T11:05:33;93611.09;;;17.12;74.18
53522;BME280;39398;48.382;9.802;2023-09-18T11:10:35;93605.00;;;16.80;74.25
53522;BME280;39398;48.382;9.802;2023-09-18T11:15:38;93621.06;;;16.83;74.88
53522;BME280;39398;48.382;9.802;2023-09-18T11:20:39;93626.44;;;16.71;75.32
53522;BME280;39398;48.382;9.802;2023-09-18T11:25:42;93619.78;;;16.64;75.56
53522;BME280;39398;48.382;9.802;2023-09-18T11:30:52;93619.38;;;16.72;76.43
53522;BME280;39398;48.382;9.802;2023-09-18T11:35:54;93619.44;;;16.60;76.09
53522;BME280;39398;48.382;9.802;2023-09-18T11:40:57;93633.97;;;16.46;76.64
53522;BME280;39398;48.382;9.802;2023-09-18T11:46:00;93629.03;;;16.50;76.98
53522;BME280;39398;48.382;9.802;2023-09-18T11:51:02;93631.91;;;16.48;77.41
53522;BME280;39398;48.382;9.802;2023-09-18T11:56:10;93621.66;;;16.25;77.29
53522;BME280;39398;48.382;9.802;2023-09-18T12:01:14;93627.34;;;16.38;77.31
53522;BME280;39398;48.382;9.802;2023-09-18T12:06:16;93631.94;;;16.31;78.41
53522;BME280;39398;48.382;9.802;2023-09-18T12:11:18;93632.63;;;16.22;78.14
53522;BME280;39398;48.382;9.802;2023-09-18T12:16:22;93608.91;;;16.33;77.41
53522;BME280;39398;48.382;9.802;2023-09-18T12:21:24;93607.84;;;16.34;77.98
53522;BME280;39398;48.382;9.802;2023-09-18T12:26:25;93610.41;;;16.29;77.66
53522;BME280;39398;48.382;9.802;2023-09-18T12:31:28;93597.59;;;16.33;78.54
53522;BME280;39398;48.382;9.802;2023-09-18T12:36:30;93582.84;;;16.27;79.47
53522;BME280;39398;48.382;9.802;2023-09-18T12:41:32;93534.66;;;16.33;79.00
53522;BME280;39398;48.382;9.802;2023-09-18T12:46:35;93536.41;;;16.49;79.78
53522;BME280;39398;48.382;9.802;2023-09-18T12:51:38;93631.16;;;16.96;78.44
53522;BME280;39398;48.382;9.802;2023-09-18T12:56:43;93627.00;;;17.00;77.74
53522;BME280;39398;48.382;9.802;2023-09-18T13:01:48;93593.41;;;16.76;78.14
53522;BME280;39398;48.382;9.802;2023-09-18T13:07:04;93578.72;;;16.74;77.33
53522;BME280;39398;48.382;9.802;2023-09-18T13:12:06;93550.53;;;16.92;76.16
53522;BME280;39398;48.382;9.802;2023-09-18T13:17:09;93539.34;;;16.80;76.82
53522;BME280;39398;48.382;9.802;2023-09-18T13:22:22;93559.31;;;16.81;77.85
53522;BME280;39398;48.382;9.802;2023-09-18T13:27:24;93572.34;;;16.70;77.27
53522;BME280;39398;48.382;9.802;2023-09-18T13:32:27;93564.88;;;16.62;77.17
53522;BME280;39398;48.382;9.802;2023-09-18T13:37:28;93559.47;;;16.69;77.48
53522;BME280;39398;48.382;9.802;2023-09-18T13:42:30;93539.84;;;16.77;76.74
53522;BME280;39398;48.382;9.802;2023-09-18T13:47:33;93544.59;;;16.80;76.88
53522;BME280;39398;48.382;9.802;2023-09-18T13:52:36;93534.75;;;16.92;76.62
53522;BME280;39398;48.382;9.802;2023-09-18T13:57:37;93515.97;;;17.05;75.94
53522;BME280;39398;48.382;9.802;2023-09-18T14:02:41;93505.53;;;17.15;75.90
53522;BME280;39398;48.382;9.802;2023-09-18T14:07:43;93491.94;;;17.23;75.71
53522;BME280;39398;48.382;9.802;2023-09-18T14:12:47;93483.53;;;17.26;75.86
53522;BME280;39398;48.382;9.802;2023-09-18T14:17:50;93498.09;;;17.39;75.14
53522;BME280;39398;48.382;9.802;2023-09-18T14:22:52;93489.25;;;17.55;74.56
53522;BME280;39398;48.382;9.802;2023-09-18T14:27:54;93500.53;;;17.51;74.54
53522;BME280;39398;48.382;9.802;2023-09-18T14:32:56;93504.94;;;17.45;74.16
53522;BME280;39398;48.382;9.802;2023-09-18T14:37:58;93503.22;;;17.61;74.35
53522;BME280;39398;48.382;9.802;2023-09-18T14:43:00;93499.06;;;17.65;73.79
53522;BME280;39398;48.382;9.802;2023-09-18T14:48:04;93480.19;;;17.73;74.04
53522;BME280;39398;48.382;9.802;2023-09-18T14:53:06;93486.47;;;17.67;74.16
53522;BME280;39398;48.382;9.802;2023-09-18T14:58:07;93486.63;;;17.60;73.93
53522;BME280;39398;48.382;9.802;2023-09-18T15:03:10;93471.31;;;17.47;73.75
53522;BME280;39398;48.382;9.802;2023-09-18T15:08:12;93451.75;;;17.65;73.69
53522;BME280;39398;48.382;9.802;2023-09-18T15:13:14;93457.56;;;17.77;72.60
53522;BME280;39398;48.382;9.802;2023-09-18T15:18:17;93461.84;;;17.88;72.96
53522;BME280;39398;48.382;9.802;2023-09-18T15:23:18;93448.66;;;17.83;73.05
53522;BME280;39398;48.382;9.802;2023-09-18T15:28:20;93443.19;;;17.90;72.51
53522;BME280;39398;48.382;9.802;2023-09-18T15:33:23;93442.84;;;17.71;73.41
53522;BME280;39398;48.382;9.802;2023-09-18T15:38:25;93428.41;;;17.73;72.76
53522;BME280;39398;48.382;9.802;2023-09-18T15:43:26;93416.59;;;17.76;73.65
53522;BME280;39398;48.382;9.802;2023-09-18T15:48:29;93419.28;;;18.01;73.30
53522;BME280;39398;48.382;9.802;2023-09-18T15:53:31;93420.34;;;18.00;72.83
53522;BME280;39398;48.382;9.802;2023-09-18T15:58:32;93414.00;;;17.91;72.38
53522;BME280;39398;48.382;9.802;2023-09-18T16:03:35;93400.25;;;17.79;72.07
53522;BME280;39398;48.382;9.802;2023-09-18T16:08:37;93395.81;;;17.74;72.07
53522;BME280;39398;48.382;9.802;2023-09-18T16:13:39;93376.31;;;17.70;71.96
53522;BME280;39398;48.382;9.802;2023-09-18T16:18:42;93369.66;;;17.53;71.98
53522;BME280;39398;48.382;9.802;2023-09-18T16:23:43;93391.94;;;17.45;71.85
53522;BME280;39398;48.382;9.802;2023-09-18T16:28:45;93404.25;;;17.34;72.62
53522;BME280;39398;48.382;9.802;2023-09-18T16:33:48;93384.78;;;17.25;72.27
53522;BME280;39398;48.382;9.802;2023-09-18T16:38:50;93368.97;;;17.20;72.60
53522;BME280;39398;48.382;9.802;2023-09-18T16:43:52;93384.69;;;17.15;72.82
53522;BME280;39398;48.382;9.802;2023-09-18T16:48:55;93390.97;;;17.09;72.88
53522;BME280;39398;48.382;9.802;2023-09-18T16:53:58;93406.78;;;17.19;72.87
53522;BME280;39398;48.382;9.802;2023-09-18T16:59:02;93397.88;;;17.20;72.63
53522;BME280;39398;48.382;9.802;2023-09-18T17:04:05;93400.47;;;17.15;72.65
53522;BME280;39398;48.382;9.802;2023-09-18T17:09:07;93395.91;;;17.00;72.43
53522;BME280;39398;48.382;9.802;2023-09-18T17:14:09;93402.50;;;17.03;72.68
53522;BME280;39398;48.382;9.802;2023-09-18T17:19:12;93404.03;;;16.99;72.71
53522;BME280;39398;48.382;9.802;2023-09-18T17:24:14;93415.03;;;16.91;72.94
53522;BME280;39398;48.382;9.802;2023-09-18T17:29:15;93420.47;;;16.84;73.54
53522;BME280;39398;48.382;9.802;2023-09-18T17:34:18;93429.97;;;16.90;73.17
53522;BME280;39398;48.382;9.802;2023-09-18T17:39:19;93440.75;;;16.94;72.91
53522;BME280;39398;48.382;9.802;2023-09-18T17:44:21;93440.69;;;16.84;72.60
53522;BME280;39398;48.382;9.802;2023-09-18T17:49:24;93463.78;;;16.82;72.59
53522;BME280;39398;48.382;9.802;2023-09-18T17:54:26;93453.25;;;16.82;72.48
53522;BME280;39398;48.382;9.802;2023-09-18T17:59:27;93459.47;;;16.70;72.53
53522;BME280;39398;48.382;9.802;2023-09-18T18:04:31;93462.19;;;16.81;72.30
53522;BME280;39398;48.382;9.802;2023-09-18T18:09:33;93457.94;;;16.74;71.92
53522;BME280;39398;48.382;9.802;2023-09-18T18:14:34;93465.63;;;16.59;72.52
53522;BME280;39398;48.382;9.802;2023-09-18T18:19:37;93468.81;;;16.61;72.44
53522;BME280;39398;48.382;9.802;2023-09-18T18:24:39;93473.19;;;16.51;72.64
53522;BME280;39398;48.382;9.802;2023-09-18T18:29:40;93469.69;;;16.45;73.17
53522;BME280;39398;48.382;9.802;2023-09-18T18:34:43;93475.47;;;16.42;73.02
53522;BME280;39398;48.382;9.802;2023-09-18T18:39:45;93470.47;;;16.40;73.42
53522;BME280;39398;48.382;9.802;2023-09-18T18:44:47;93455.06;;;16.49;72.99
53522;BME280;39398;48.382;9.802;2023-09-18T18:49:50;93451.38;;;16.50;73.68
53522;BME280;39398;48.382;9.802;2023-09-18T18:54:54;93445.66;;;16.53;73.28
53522;BME280;39398;48.382;9.802;2023-09-18T18:59:55;93443.50;;;16.50;72.73
53522;BME280;39398;48.382;9.802;2023-09-18T19:04:59;93467.63;;;16.47;73.23
53522;BME280;39398;48.382;9.802;2023-09-18T19:10:00;93470.78;;;16.49;74.19
53522;BME280;39398;48.382;9.802;2023-09-18T19:15:02;93474.94;;;16.45;74.06
53522;BME280;39398;48.382;9.802;2023-09-18T19:20:09;93483.56;;;16.40;74.11
53522;BME280;39398;48.382;9.802;2023-09-18T19:25:11;93489.97;;;16.28;73.66
53522;BME280;39398;48.382;9.802;2023-09-18T19:30:12;93494.16;;;16.24;74.13
53522;BME280;39398;48.382;9.802;2023-09-18T19:35:15;93507.31;;;16.29;73.75
53522;BME280;39398;48.382;9.802;2023-09-18T19:40:17;93514.03;;;16.20;74.08
53522;BME280;39398;48.382;9.802;2023-09-18T19:45:19;93518.81;;;16.23;74.90
53522;BME280;39398;48.382;9.802;2023-09-18T19:50:22;93515.50;;;16.11;74.67
53522;BME280;39398;48.382;9.802;2023-09-18T19:55:24;93527.56;;;16.12;74.35
53522;BME280;39398;48.382;9.802;2023-09-18T20:00:29;93512.94;;;16.16;74.30
53522;BME280;39398;48.382;9.802;2023-09-18T20:05:31;93519.66;;;16.07;74.61
53522;BME280;39398;48.382;9.802;2023-09-18T20:10:33;93522.28;;;16.07;74.20
53522;BME280;39398;48.382;9.802;2023-09-18T20:15:35;93531.19;;;16.05;73.89
53522;BME280;39398;48.382;9.802;2023-09-18T20:20:38;93543.50;;;16.05;73.54
53522;BME280;39398;48.382;9.802;2023-09-18T20:25:40;93547.88;;;15.99;74.32
53522;BME280;39398;48.382;9.802;2023-09-18T20:30:41;93541.13;;;16.03;74.95
53522;BME280;39398;48.382;9.802;2023-09-18T20:35:44;93538.25;;;16.05;74.57
53522;BME280;39398;48.382;9.802;2023-09-18T20:40:46;93534.47;;;15.96;75.05
53522;BME280;39398;48.382;9.802;2023-09-18T20:45:47;93539.75;;;15.79;75.59
53522;BME280;39398;48.382;9.802;2023-09-18T20:50:50;93521.47;;;15.84;75.58
53522;BME280;39398;48.382;9.802;2023-09-18T20:55:52;93527.53;;;15.68;75.81
53522;BME280;39398;48.382;9.802;2023-09-18T21:00:53;93520.72;;;15.67;75.49
53522;BME280;39398;48.382;9.802;2023-09-18T21:05:56;93503.28;;;15.56;76.06
53522;BME280;39398;48.382;9.802;2023-09-18T21:10:58;93501.59;;;15.50;76.47
53522;BME280;39398;48.382;9.802;2023-09-18T21:16:00;93506.91;;;15.55;75.72
53522;BME280;39398;48.382;9.802;2023-09-18T21:21:03;93521.19;;;15.64;75.12
53522;BME280;39398;48.382;9.802;2023-09-18T21:26:04;93521.66;;;15.61;75.13
53522;BME280;39398;48.382;9.802;2023-09-18T21:31:07;93521.03;;;15.54;75.75
53522;BME280;39398;48.382;9.802;2023-09-18T21:36:13;93523.56;;;15.49;75.75
53522;BME280;39398;48.382;9.802;2023-09-18T21:41:16;93529.75;;;15.43;75.75
53522;BME280;39398;48.382;9.802;2023-09-18T21:46:17;93521.44;;;15.46;75.26
53522;BME280;39398;48.382;9.802;2023-09-18T21:51:20;93529.28;;;15.46;74.52
53522;BME280;39398;48.382;9.802;2023-09-18T21:56:22;93536.59;;;15.44;74.73
53522;BME280;39398;48.382;9.802;2023-09-18T22:01:23;93526.66;;;15.46;74.05
53522;BME280;39398;48.382;9.802;2023-09-18T22:06:26;93525.88;;;15.45;74.24
53522;BME280;39398;48.382;9.802;2023-09-18T22:11:28;93529.84;;;15.48;74.73
53522;BME280;39398;48.382;9.802;2023-09-18T22:16:30;93530.16;;;15.51;74.11
53522;BME280;39398;48.382;9.802;2023-09-18T22:21:33;93550.44;;;15.56;74.56
53522;BME280;39398;48.382;9.802;2023-09-18T22:26:34;93558.97;;;15.51;74.67
53522;BME280;39398;48.382;9.802;2023-09-18T22:31:36;93571.69;;;15.43;74.56
53522;BME280;39398;48.382;9.802;2023-09-18T22:36:39;93566.75;;;15.46;74.45
53522;BME280;39398;48.382;9.802;2023-09-18T22:57:43;93573.13;;;15.50;74.78
53522;BME280;39398;48.382;9.802;2023-09-18T23:02:46;93573.44;;;15.54;73.90
53522;BME280;39398;48.382;9.802;2023-09-18T23:07:49;93579.31;;;15.61;74.59
53522;BME280;39398;48.382;9.802;2023-09-18T23:12:53;93587.56;;;15.53;73.94
53522;BME280;39398;48.382;9.802;2023-09-18T23:17:54;93598.44;;;15.45;74.60
53522;BME280;39398;48.382;9.802;2023-09-18T23:22:56;93610.72;;;15.44;73.85
53522;BME280;39398;48.382;9.802;2023-09-18T23:27:59;93622.66;;;15.52;73.60
53522;BME280;39398;48.382;9.802;2023-09-18T23:33:01;93630.94;;;15.60;73.59
53522;BME280;39398;48.382;9.802;2023-09-18T23:38:06;93627.34;;;15.50;72.96
53522;BME280;39398;48.382;9.802;2023-09-18T23:43:09;93646.00;;;15.36;71.89
53522;BME280;39398;48.382;9.802;2023-09-18T23:48:12;93618.22;;;15.35;72.37
53522;BME280;39398;48.382;9.802;2023-09-18T23:53:15;93635.31;;;15.10;72.84
53522;BME280;39398;48.382;9.802;2023-09-18T23:58:19;93621.50;;;15.14;73.09
